sensor_id;sensor_type;location;lat;lon;timestamp;noise_LAeq;noise_LA_min;noise_LA_max;noise_LA01;noise_LA95
50333;Laerm;36239;48.132;-1.210;2023-09-19T00:01:08;39.17;33.44;45.37;;
50333;Laerm;36239;48.132;-1.210;2023-09-19T00:03:35;39.28;35.04;45.54;;
50333;Laerm;36239;48.132;-1.210;2023-09-19T00:06:04;39.00;33.44;44.43;;
50333;Laerm;36239;48.132;-1.210;2023-09-19T00:08:30;39.40;35.36;47.81;;
50333;Laerm;36239;48.132;-1.210;2023-09-19T00:10:57;40.32;34.69;43.94;;
50333;Laerm;36239;48.132;-1.210;2023-09-19T00:13:31;39.17;32.93;42.41;;
50333;Laerm;36239;48.132;-1.210;2023-09-19T00:15:57;38.52;33.90;43.81;;
50333;Laerm;36239;48.132;-1.210;2023-09-19T00:18:24;38.87;33.90;42.16;;
50333;Laerm;36239;48.132;-1.210;2023-09-19T00:20:57;38.52;33.90;41.82;;
50333;Laerm;36239;48.132;-1.210;2023-09-19T00:23:23;38.32;33.90;41.53;;
50333;Laerm;36239;48.132;-1.210;2023-09-19T00:25:50;38.89;34.31;43.39;;
50333;Laerm;36239;48.132;-1.210;2023-09-19T00:28:17;38.75;33.90;43.24;;
50333;Laerm;36239;48.132;-1.210;2023-09-19T00:30:44;38.84;35.04;42.16;;
50333;Laerm;36239;48.132;-1.210;2023-09-19T00:33:10;38.78;33.44;42.53;;
50333;Laerm;36239;48.132;-1.210;2023-09-19T00:35:52;38.72;34.69;42.16;;
50333;Laerm;36239;48.132;-1.210;2023-09-19T00:38:19;38.68;33.44;52.14;;
50333;Laerm;36239;48.132;-1.210;2023-09-19T00:40:52;38.69;34.69;44.23;;
50333;Laerm;36239;48.132;-1.210;2023-09-19T00:43:19;38.03;32.93;42.93;;
50333;Laerm;36239;48.132;-1.210;2023-09-19T00:45:47;38.06;32.35;42.09;;
50333;Laerm;36239;48.132;-1.210;2023-09-19T00:48:14;39.71;34.31;43.34;;
50333;Laerm;36239;48.132;-1.210;2023-09-19T00:50:41;38.98;33.97;42.98;;
50333;Laerm;36239;48.132;-1.210;2023-09-19T00:53:09;39.36;34.31;43.44;;
50333;Laerm;36239;48.132;-1.210;2023-09-19T00:55:39;39.30;35.04;43.34;;
50333;Laerm;36239;48.132;-1.210;2023-09-19T00:58:05;39.14;34.31;43.39;;
50333;Laerm;36239;48.132;-1.210;2023-09-19T01:00:33;38.97;34.31;42.41;;
50333;Laerm;36239;48.132;-1.210;2023-09-19T01:03:00;38.76;32.35;42.98;;
50333;Laerm;36239;48.132;-1.210;2023-09-19T01:05:27;38.73;34.31;42.06;;
50333;Laerm;36239;48.132;-1.210;2023-09-19T01:07:53;39.10;33.90;43.39;;
50333;Laerm;36239;48.132;-1.210;2023-09-19T01:10:20;38.95;33.90;42.41;;
50333;Laerm;36239;48.132;-1.210;2023-09-19T01:15:19;39.26;34.69;43.34;;
50333;Laerm;36239;48.132;-1.210;2023-09-19T01:17:57;39.30;35.36;43.24;;
50333;Laerm;36239;48.132;-1.210;2023-09-19T01:25:33;38.93;33.90;42.65;;
50333;Laerm;36239;48.132;-1.210;2023-09-19T01:30:32;39.40;35.04;43.34;;
50333;Laerm;36239;48.132;-1.210;2023-09-19T01:32:58;39.55;35.36;43.19;;
50333;Laerm;36239;48.132;-1.210;2023-09-19T01:35:25;39.13;35.66;42.16;;
50333;Laerm;36239;48.132;-1.210;2023-09-19T01:37:51;39.57;35.36;46.48;;
50333;Laerm;36239;48.132;-1.210;2023-09-19T01:40:19;39.13;35.36;44.07;;
50333;Laerm;36239;48.132;-1.210;2023-09-19T01:48:05;39.55;35.59;44.39;;
50333;Laerm;36239;48.132;-1.210;2023-09-19T01:50:34;38.62;34.69;43.34;;
50333;Laerm;36239;48.132;-1.210;2023-09-19T01:53:07;38.69;35.36;42.29;;
50333;Laerm;36239;48.132;-1.210;2023-09-19T01:55:41;38.45;33.44;42.93;;
50333;Laerm;36239;48.132;-1.210;2023-09-19T01:58:20;39.65;34.31;43.55;;
50333;Laerm;36239;48.132;-1.210;2023-09-19T02:00:46;39.55;34.31;43.68;;
50333;Laerm;36239;48.132;-1.210;2023-09-19T02:03:13;38.44;33.90;45.01;;
50333;Laerm;36239;48.132;-1.210;2023-09-19T02:05:40;39.66;35.66;44.83;;
50333;Laerm;36239;48.132;-1.210;2023-09-19T02:08:06;39.90;35.66;44.23;;
50333;Laerm;36239;48.132;-1.210;2023-09-19T02:10:33;40.05;35.66;43.44;;
50333;Laerm;36239;48.132;-1.210;2023-09-19T02:13:00;39.49;35.66;45.17;;
50333;Laerm;36239;48.132;-1.210;2023-09-19T02:15:26;39.02;35.36;50.59;;
50333;Laerm;36239;48.132;-1.210;2023-09-19T02:17:52;38.61;35.36;41.61;;
50333;Laerm;36239;48.132;-1.210;2023-09-19T02:20:19;39.37;35.36;42.35;;
50333;Laerm;36239;48.132;-1.210;2023-09-19T02:22:46;39.06;35.36;42.95;;
50333;Laerm;36239;48.132;-1.210;2023-09-19T02:25:12;38.60;34.31;43.86;;
50333;Laerm;36239;48.132;-1.210;2023-09-19T02:27:39;38.54;33.44;44.73;;
50333;Laerm;36239;48.132;-1.210;2023-09-19T02:30:05;39.28;35.04;45.01;;
50333;Laerm;36239;48.132;-1.210;2023-09-19T02:32:32;39.11;35.36;42.35;;
50333;Laerm;36239;48.132;-1.210;2023-09-19T02:35:01;39.19;35.66;42.29;;
50333;Laerm;36239;48.132;-1.210;2023-09-19T02:37:27;39.69;35.66;44.07;;
50333;Laerm;36239;48.132;-1.210;2023-09-19T02:39:53;39.57;35.36;48.48;;
50333;Laerm;36239;48.132;-1.210;2023-09-19T02:42:19;40.00;36.20;43.19;;
50333;Laerm;36239;48.132;-1.210;2023-09-19T02:44:45;39.59;35.66;45.72;;
50333;Laerm;36239;48.132;-1.210;2023-09-19T02:47:12;39.13;35.66;52.34;;
50333;Laerm;36239;48.132;-1.210;2023-09-19T02:49:40;39.65;35.66;44.19;;
50333;Laerm;36239;48.132;-1.210;2023-09-19T02:52:08;39.20;35.04;43.14;;
50333;Laerm;36239;48.132;-1.210;2023-09-19T02:54:34;38.79;35.36;42.88;;
50333;Laerm;36239;48.132;-1.210;2023-09-19T02:57:00;38.75;34.69;42.71;;
50333;Laerm;36239;48.132;-1.210;2023-09-19T02:59:26;38.46;34.31;42.03;;
50333;Laerm;36239;48.132;-1.210;2023-09-19T03:01:54;38.97;34.69;44.73;;
50333;Laerm;36239;48.132;-1.210;2023-09-19T03:04:20;38.45;33.90;42.53;;
50333;Laerm;36239;48.132;-1.210;2023-09-19T03:06:46;38.84;34.69;43.81;;
50333;Laerm;36239;48.132;-1.210;2023-09-19T03:09:15;38.59;35.04;42.47;;
50333;Laerm;36239;48.132;-1.210;2023-09-19T03:11:41;39.18;35.04;44.94;;
50333;Laerm;36239;48.132;-1.210;2023-09-19T03:14:08;40.27;36.10;45.97;;
50333;Laerm;36239;48.132;-1.210;2023-09-19T03:16:35;39.51;35.36;43.14;;
50333;Laerm;36239;48.132;-1.210;2023-09-19T03:19:03;39.41;35.66;42.03;;
50333;Laerm;36239;48.132;-1.210;2023-09-19T03:21:29;39.34;36.20;42.88;;
50333;Laerm;36239;48.132;-1.210;2023-09-19T03:23:56;39.39;34.69;43.19;;
50333;Laerm;36239;48.132;-1.210;2023-09-19T03:26:22;39.23;35.04;42.93;;
50333;Laerm;36239;48.132;-1.210;2023-09-19T03:28:48;39.35;35.36;42.82;;
50333;Laerm;36239;48.132;-1.210;2023-09-19T03:31:14;39.11;35.36;42.30;;
50333;Laerm;36239;48.132;-1.210;2023-09-19T03:33:40;53.24;35.36;75.55;;
50333;Laerm;36239;48.132;-1.210;2023-09-19T03:36:06;39.23;35.94;43.19;;
50333;Laerm;36239;48.132;-1.210;2023-09-19T03:38:33;40.48;36.20;45.45;;
50333;Laerm;36239;48.132;-1.210;2023-09-19T03:41:00;42.45;37.70;47.42;;
50333;Laerm;36239;48.132;-1.210;2023-09-19T03:43:26;47.23;36.69;65.44;;
50333;Laerm;36239;48.132;-1.210;2023-09-19T03:45:53;40.16;36.69;47.90;;
50333;Laerm;36239;48.132;-1.210;2023-09-19T03:48:20;39.80;36.45;44.27;;
50333;Laerm;36239;48.132;-1.210;2023-09-19T03:50:47;46.93;35.66;65.37;;
50333;Laerm;36239;48.132;-1.210;2023-09-19T03:53:13;40.40;36.91;45.11;;
50333;Laerm;36239;48.132;-1.210;2023-09-19T03:55:40;47.35;37.32;59.80;;
50333;Laerm;36239;48.132;-1.210;2023-09-19T03:58:06;40.79;36.20;49.93;;
50333;Laerm;36239;48.132;-1.210;2023-09-19T04:00:32;39.87;36.45;44.03;;
50333;Laerm;36239;48.132;-1.210;2023-09-19T04:02:58;41.34;36.45;48.64;;
50333;Laerm;36239;48.132;-1.210;2023-09-19T04:05:24;40.50;35.66;48.55;;
50333;Laerm;36239;48.132;-1.210;2023-09-19T04:07:50;39.12;35.04;43.14;;
50333;Laerm;36239;48.132;-1.210;2023-09-19T04:10:16;40.52;36.91;44.35;;
50333;Laerm;36239;48.132;-1.210;2023-09-19T04:13:04;40.78;37.32;45.75;;
50333;Laerm;36239;48.132;-1.210;2023-09-19T04:15:29;41.07;37.32;46.84;;
50333;Laerm;36239;48.132;-1.210;2023-09-19T04:17:55;42.14;37.32;55.13;;
50333;Laerm;36239;48.132;-1.210;2023-09-19T04:20:21;41.35;37.12;46.66;;
50333;Laerm;36239;48.132;-1.210;2023-09-19T04:22:50;40.69;36.91;45.66;;
50333;Laerm;36239;48.132;-1.210;2023-09-19T04:25:16;40.29;36.69;47.04;;
50333;Laerm;36239;48.132;-1.210;2023-09-19T04:27:42;39.92;36.20;42.69;;
50333;Laerm;36239;48.132;-1.210;2023-09-19T04:30:10;40.76;36.45;45.04;;
50333;Laerm;36239;48.132;-1.210;2023-09-19T04:32:40;40.75;36.91;44.87;;
50333;Laerm;36239;48.132;-1.210;2023-09-19T04:35:07;41.36;37.17;55.91;;
50333;Laerm;36239;48.132;-1.210;2023-09-19T04:37:40;41.26;37.87;44.54;;
50333;Laerm;36239;48.132;-1.210;2023-09-19T04:40:07;41.25;37.88;47.74;;
50333;Laerm;36239;48.132;-1.210;2023-09-19T04:42:39;41.12;37.88;44.31;;
50333;Laerm;36239;48.132;-1.210;2023-09-19T04:45:05;41.81;38.21;45.54;;
50333;Laerm;36239;48.132;-1.210;2023-09-19T04:47:31;41.50;38.05;45.14;;
50333;Laerm;36239;48.132;-1.210;2023-09-19T04:49:57;40.76;37.17;44.54;;
50333;Laerm;36239;48.132;-1.210;2023-09-19T04:52:24;41.85;38.37;45.51;;
50333;Laerm;36239;48.132;-1.210;2023-09-19T04:54:50;42.90;38.67;67.88;;
50333;Laerm;36239;48.132;-1.210;2023-09-19T04:57:16;57.78;39.34;74.56;;
50333;Laerm;36239;48.132;-1.210;2023-09-19T04:59:42;42.45;39.46;48.63;;
50333;Laerm;36239;48.132;-1.210;2023-09-19T05:02:08;41.87;38.37;50.02;;
50333;Laerm;36239;48.132;-1.210;2023-09-19T05:04:35;41.37;37.52;46.40;;
50333;Laerm;36239;48.132;-1.210;2023-09-19T05:07:01;43.31;37.70;69.69;;
50333;Laerm;36239;48.132;-1.210;2023-09-19T05:09:29;41.83;38.37;48.88;;
50333;Laerm;36239;48.132;-1.210;2023-09-19T05:11:55;41.45;38.37;50.83;;
50333;Laerm;36239;48.132;-1.210;2023-09-19T05:14:22;43.39;38.05;61.36;;
50333;Laerm;36239;48.132;-1.210;2023-09-19T05:16:49;41.49;38.37;54.21;;
50333;Laerm;36239;48.132;-1.210;2023-09-19T05:19:15;41.31;38.21;54.20;;
50333;Laerm;36239;48.132;-1.210;2023-09-19T05:21:41;41.45;38.21;50.57;;
50333;Laerm;36239;48.132;-1.210;2023-09-19T05:24:07;41.33;38.05;48.10;;
50333;Laerm;36239;48.132;-1.210;2023-09-19T05:26:33;41.39;38.37;51.23;;
50333;Laerm;36239;48.132;-1.210;2023-09-19T05:28:59;41.46;38.52;50.60;;
50333;Laerm;36239;48.132;-1.210;2023-09-19T05:31:25;41.63;38.05;48.18;;
50333;Laerm;36239;48.132;-1.210;2023-09-19T05:33:51;41.14;37.88;55.30;;
50333;Laerm;36239;48.132;-1.210;2023-09-19T05:36:18;41.47;37.88;50.51;;
50333;Laerm;36239;48.132;-1.210;2023-09-19T05:38:44;42.13;38.87;51.28;;
50333;Laerm;36239;48.132;-1.210;2023-09-19T05:41:10;41.07;37.88;50.35;;
50333;Laerm;36239;48.132;-1.210;2023-09-19T05:43:39;48.20;38.21;73.04;;
50333;Laerm;36239;48.132;-1.210;2023-09-19T05:46:07;41.63;37.52;53.08;;
50333;Laerm;36239;48.132;-1.210;2023-09-19T05:48:34;42.43;38.21;58.42;;
50333;Laerm;36239;48.132;-1.210;2023-09-19T05:51:00;49.59;38.95;65.92;;
50333;Laerm;36239;48.132;-1.210;2023-09-19T05:53:26;42.86;39.08;61.59;;
50333;Laerm;36239;48.132;-1.210;2023-09-19T05:55:52;46.70;38.81;63.03;;
50333;Laerm;36239;48.132;-1.210;2023-09-19T05:58:21;41.94;38.95;56.62;;
50333;Laerm;36239;48.132;-1.210;2023-09-19T06:00:47;43.23;39.21;64.91;;
50333;Laerm;36239;48.132;-1.210;2023-09-19T06:03:15;45.20;37.88;65.98;;
50333;Laerm;36239;48.132;-1.210;2023-09-19T06:05:41;46.84;39.46;71.16;;
50333;Laerm;36239;48.132;-1.210;2023-09-19T06:08:07;42.92;39.34;63.64;;
50333;Laerm;36239;48.132;-1.210;2023-09-19T06:10:34;42.18;39.21;57.27;;
50333;Laerm;36239;48.132;-1.210;2023-09-19T06:13:03;41.93;38.95;58.19;;
50333;Laerm;36239;48.132;-1.210;2023-09-19T06:15:35;43.46;39.70;56.06;;
50333;Laerm;36239;48.132;-1.210;2023-09-19T06:18:02;44.72;40.13;59.72;;
50333;Laerm;36239;48.132;-1.210;2023-09-19T06:20:30;46.69;40.33;63.32;;
50333;Laerm;36239;48.132;-1.210;2023-09-19T06:22:57;44.42;40.03;55.70;;
50333;Laerm;36239;48.132;-1.210;2023-09-19T06:25:23;43.27;39.70;55.01;;
50333;Laerm;36239;48.132;-1.210;2023-09-19T06:27:49;43.12;39.81;56.27;;
50333;Laerm;36239;48.132;-1.210;2023-09-19T06:30:18;43.98;39.58;61.14;;
50333;Laerm;36239;48.132;-1.210;2023-09-19T06:32:44;43.84;39.70;56.26;;
50333;Laerm;36239;48.132;-1.210;2023-09-19T06:35:10;46.82;40.13;63.64;;
50333;Laerm;36239;48.132;-1.210;2023-09-19T06:37:37;50.09;40.43;70.51;;
50333;Laerm;36239;48.132;-1.210;2023-09-19T06:40:13;52.90;41.06;73.99;;
50333;Laerm;36239;48.132;-1.210;2023-09-19T06:42:41;49.25;41.38;65.71;;
50333;Laerm;36239;48.132;-1.210;2023-09-19T06:45:07;46.23;40.13;61.33;;
50333;Laerm;36239;48.132;-1.210;2023-09-19T06:47:34;43.16;39.81;55.94;;
50333;Laerm;36239;48.132;-1.210;2023-09-19T06:50:00;42.26;39.08;53.00;;
50333;Laerm;36239;48.132;-1.210;2023-09-19T06:52:28;42.80;38.95;53.99;;
50333;Laerm;36239;48.132;-1.210;2023-09-19T06:54:54;42.87;39.08;62.64;;
50333;Laerm;36239;48.132;-1.210;2023-09-19T06:57:20;43.44;38.21;61.36;;
50333;Laerm;36239;48.132;-1.210;2023-09-19T06:59:46;45.17;39.70;60.28;;
50333;Laerm;36239;48.132;-1.210;2023-09-19T07:02:12;41.85;38.37;46.28;;
50333;Laerm;36239;48.132;-1.210;2023-09-19T07:04:39;42.60;39.21;60.95;;
50333;Laerm;36239;48.132;-1.210;2023-09-19T07:07:06;42.68;40.23;48.07;;
50333;Laerm;36239;48.132;-1.210;2023-09-19T07:09:34;42.70;38.81;57.13;;
50333;Laerm;36239;48.132;-1.210;2023-09-19T07:12:00;43.49;39.46;56.84;;
50333;Laerm;36239;48.132;-1.210;2023-09-19T07:14:26;42.08;38.95;50.68;;
50333;Laerm;36239;48.132;-1.210;2023-09-19T07:16:53;41.97;37.88;54.38;;
50333;Laerm;36239;48.132;-1.210;2023-09-19T07:19:20;42.00;37.88;51.06;;
50333;Laerm;36239;48.132;-1.210;2023-09-19T07:21:46;40.81;37.53;47.55;;
50333;Laerm;36239;48.132;-1.210;2023-09-19T07:24:13;40.91;37.12;53.01;;
50333;Laerm;36239;48.132;-1.210;2023-09-19T07:26:39;40.99;36.91;52.48;;
50333;Laerm;36239;48.132;-1.210;2023-09-19T07:29:05;41.03;37.88;44.27;;
50333;Laerm;36239;48.132;-1.210;2023-09-19T07:31:32;41.17;38.05;45.14;;
50333;Laerm;36239;48.132;-1.210;2023-09-19T07:33:58;41.86;38.37;54.37;;
50333;Laerm;36239;48.132;-1.210;2023-09-19T07:36:24;41.43;37.70;44.23;;
50333;Laerm;36239;48.132;-1.210;2023-09-19T07:38:50;41.31;38.05;45.99;;
50333;Laerm;36239;48.132;-1.210;2023-09-19T07:41:16;43.51;37.70;62.94;;
50333;Laerm;36239;48.132;-1.210;2023-09-19T07:43:42;43.17;37.70;61.06;;
50333;Laerm;36239;48.132;-1.210;2023-09-19T07:46:09;40.94;37.52;58.83;;
50333;Laerm;36239;48.132;-1.210;2023-09-19T07:48:35;40.74;37.52;46.52;;
50333;Laerm;36239;48.132;-1.210;2023-09-19T07:51:02;42.04;37.32;61.00;;
50333;Laerm;36239;48.132;-1.210;2023-09-19T07:53:29;43.88;37.32;70.13;;
50333;Laerm;36239;48.132;-1.210;2023-09-19T07:56:05;48.56;38.05;74.92;;
50333;Laerm;36239;48.132;-1.210;2023-09-19T07:58:31;41.84;37.52;62.24;;
50333;Laerm;36239;48.132;-1.210;2023-09-19T08:01:02;41.25;37.12;55.32;;
50333;Laerm;36239;48.132;-1.210;2023-09-19T08:03:28;41.13;36.91;48.52;;
50333;Laerm;36239;48.132;-1.210;2023-09-19T08:05:56;41.42;37.88;50.30;;
50333;Laerm;36239;48.132;-1.210;2023-09-19T08:08:23;40.74;37.88;53.70;;
50333;Laerm;36239;48.132;-1.210;2023-09-19T08:10:56;40.95;37.32;48.03;;
50333;Laerm;36239;48.132;-1.210;2023-09-19T08:13:23;41.03;38.05;52.54;;
50333;Laerm;36239;48.132;-1.210;2023-09-19T08:15:49;42.92;37.88;61.45;;
50333;Laerm;36239;48.132;-1.210;2023-09-19T08:18:15;44.44;38.47;56.42;;
50333;Laerm;36239;48.132;-1.210;2023-09-19T08:20:41;44.67;38.37;67.05;;
50333;Laerm;36239;48.132;-1.210;2023-09-19T08:23:11;44.50;38.95;62.44;;
50333;Laerm;36239;48.132;-1.210;2023-09-19T08:25:37;48.77;39.92;68.87;;
50333;Laerm;36239;48.132;-1.210;2023-09-19T08:28:05;48.76;39.34;66.54;;
50333;Laerm;36239;48.132;-1.210;2023-09-19T08:30:34;49.62;40.71;67.44;;
50333;Laerm;36239;48.132;-1.210;2023-09-19T08:33:00;52.09;41.53;70.54;;
50333;Laerm;36239;48.132;-1.210;2023-09-19T08:35:27;52.29;41.82;68.22;;
50333;Laerm;36239;48.132;-1.210;2023-09-19T08:37:53;53.03;42.16;70.90;;
50333;Laerm;36239;48.132;-1.210;2023-09-19T08:40:21;50.07;41.30;65.24;;
50333;Laerm;36239;48.132;-1.210;2023-09-19T08:42:53;48.93;40.43;66.75;;
50333;Laerm;36239;48.132;-1.210;2023-09-19T08:45:20;49.22;40.43;66.20;;
50333;Laerm;36239;48.132;-1.210;2023-09-19T08:47:56;49.94;40.62;65.92;;
50333;Laerm;36239;48.132;-1.210;2023-09-19T08:50:28;49.63;41.06;64.58;;
50333;Laerm;36239;48.132;-1.210;2023-09-19T08:52:55;51.37;41.38;65.05;;
50333;Laerm;36239;48.132;-1.210;2023-09-19T08:55:23;50.19;41.19;66.46;;
50333;Laerm;36239;48.132;-1.210;2023-09-19T08:57:55;45.97;39.57;63.47;;
50333;Laerm;36239;48.132;-1.210;2023-09-19T09:00:25;46.89;39.08;72.66;;
50333;Laerm;36239;48.132;-1.210;2023-09-19T09:02:54;43.68;38.67;53.65;;
50333;Laerm;36239;48.132;-1.210;2023-09-19T09:05:21;43.42;39.46;56.33;;
50333;Laerm;36239;48.132;-1.210;2023-09-19T09:07:49;43.61;39.21;62.79;;
50333;Laerm;36239;48.132;-1.210;2023-09-19T09:10:20;42.45;38.81;53.68;;
50333;Laerm;36239;48.132;-1.210;2023-09-19T09:12:51;43.91;40.03;58.96;;
50333;Laerm;36239;48.132;-1.210;2023-09-19T09:15:19;43.12;38.81;59.31;;
50333;Laerm;36239;48.132;-1.210;2023-09-19T09:17:47;44.16;38.05;66.64;;
50333;Laerm;36239;48.132;-1.210;2023-09-19T09:20:14;43.57;38.95;66.26;;
50333;Laerm;36239;48.132;-1.210;2023-09-19T09:22:50;42.95;38.52;57.00;;
50333;Laerm;36239;48.132;-1.210;2023-09-19T09:25:16;43.96;39.46;65.07;;
50333;Laerm;36239;48.132;-1.210;2023-09-19T09:27:45;51.95;38.95;84.47;;
50333;Laerm;36239;48.132;-1.210;2023-09-19T09:30:11;52.55;39.46;79.96;;
50333;Laerm;36239;48.132;-1.210;2023-09-19T09:33:10;45.92;39.21;67.94;;
50333;Laerm;36239;48.132;-1.210;2023-09-19T09:38:21;47.54;39.46;75.76;;
50333;Laerm;36239;48.132;-1.210;2023-09-19T09:40:52;48.30;38.95;76.42;;
50333;Laerm;36239;48.132;-1.210;2023-09-19T09:43:29;46.22;39.08;77.04;;
50333;Laerm;36239;48.132;-1.210;2023-09-19T09:46:09;46.06;40.53;67.52;;
50333;Laerm;36239;48.132;-1.210;2023-09-19T09:51:40;41.74;38.05;49.49;;
50333;Laerm;36239;48.132;-1.210;2023-09-19T09:54:11;43.91;38.52;58.65;;
50333;Laerm;36239;48.132;-1.210;2023-09-19T09:56:51;50.62;39.21;76.15;;
50333;Laerm;36239;48.132;-1.210;2023-09-19T09:59:18;51.34;38.81;81.00;;
50333;Laerm;36239;48.132;-1.210;2023-09-19T10:01:47;42.21;39.58;52.05;;
50333;Laerm;36239;48.132;-1.210;2023-09-19T10:04:34;52.88;39.46;81.26;;
50333;Laerm;36239;48.132;-1.210;2023-09-19T10:07:02;47.64;40.53;64.89;;
50333;Laerm;36239;48.132;-1.210;2023-09-19T10:09:44;50.76;39.46;80.70;;
50333;Laerm;36239;48.132;-1.210;2023-09-19T10:12:10;45.42;40.23;59.05;;
50333;Laerm;36239;48.132;-1.210;2023-09-19T10:14:37;48.08;40.23;70.54;;
50333;Laerm;36239;48.132;-1.210;2023-09-19T10:17:04;48.43;40.03;73.20;;
50333;Laerm;36239;48.132;-1.210;2023-09-19T10:19:33;51.55;39.81;79.33;;
50333;Laerm;36239;48.132;-1.210;2023-09-19T10:22:02;57.04;40.33;84.07;;
50333;Laerm;36239;48.132;-1.210;2023-09-19T10:24:28;46.95;40.53;66.30;;
50333;Laerm;36239;48.132;-1.210;2023-09-19T10:26:56;45.65;38.37;57.26;;
50333;Laerm;36239;48.132;-1.210;2023-09-19T10:29:23;46.85;39.68;61.41;;
50333;Laerm;36239;48.132;-1.210;2023-09-19T10:31:52;49.67;39.58;75.23;;
50333;Laerm;36239;48.132;-1.210;2023-09-19T10:34:19;54.91;39.89;80.03;;
50333;Laerm;36239;48.132;-1.210;2023-09-19T10:36:46;48.90;39.58;77.68;;
50333;Laerm;36239;48.132;-1.210;2023-09-19T10:39:13;48.53;40.33;73.10;;
50333;Laerm;36239;48.132;-1.210;2023-09-19T10:41:41;42.82;38.81;58.57;;
50333;Laerm;36239;48.132;-1.210;2023-09-19T10:44:07;46.54;40.43;66.13;;
50333;Laerm;36239;48.132;-1.210;2023-09-19T10:46:34;54.18;39.21;81.73;;
50333;Laerm;36239;48.132;-1.210;2023-09-19T10:49:00;58.44;43.63;82.77;;
50333;Laerm;36239;48.132;-1.210;2023-09-19T10:51:29;53.19;41.14;79.05;;
50333;Laerm;36239;48.132;-1.210;2023-09-19T10:54:08;49.08;40.98;72.98;;
50333;Laerm;36239;48.132;-1.210;2023-09-19T10:56:42;57.49;41.96;83.24;;
50333;Laerm;36239;48.132;-1.210;2023-09-19T10:59:11;64.45;44.03;89.99;;
50333;Laerm;36239;48.132;-1.210;2023-09-19T11:01:43;58.44;41.75;86.71;;
50333;Laerm;36239;48.132;-1.210;2023-09-19T11:04:32;53.30;41.75;75.68;;
50333;Laerm;36239;48.132;-1.210;2023-09-19T11:09:33;49.76;40.62;72.26;;
50333;Laerm;36239;48.132;-1.210;2023-09-19T11:12:08;52.93;40.71;79.70;;
50333;Laerm;36239;48.132;-1.210;2023-09-19T11:14:38;53.93;41.53;82.01;;
50333;Laerm;36239;48.132;-1.210;2023-09-19T11:22:19;67.71;42.35;94.22;;
50333;Laerm;36239;48.132;-1.210;2023-09-19T11:24:48;52.37;42.35;74.14;;
50333;Laerm;36239;48.132;-1.210;2023-09-19T11:27:16;65.01;45.63;87.87;;
50333;Laerm;36239;48.132;-1.210;2023-09-19T11:29:44;56.50;44.11;78.13;;
50333;Laerm;36239;48.132;-1.210;2023-09-19T11:32:10;47.91;40.33;72.51;;
50333;Laerm;36239;48.132;-1.210;2023-09-19T11:37:03;46.34;39.70;69.51;;
50333;Laerm;36239;48.132;-1.210;2023-09-19T11:39:30;53.11;40.23;79.06;;
50333;Laerm;36239;48.132;-1.210;2023-09-19T11:41:56;43.15;39.92;64.94;;
50333;Laerm;36239;48.132;-1.210;2023-09-19T11:49:27;46.29;39.68;66.86;;
50333;Laerm;36239;48.132;-1.210;2023-09-19T11:51:58;53.91;39.34;81.37;;
50333;Laerm;36239;48.132;-1.210;2023-09-19T11:54:27;55.94;40.03;85.94;;
50333;Laerm;36239;48.132;-1.210;2023-09-19T11:56:57;60.21;40.03;89.88;;
50333;Laerm;36239;48.132;-1.210;2023-09-19T11:59:25;47.29;39.08;73.78;;
50333;Laerm;36239;48.132;-1.210;2023-09-19T12:02:01;47.65;40.71;62.84;;
50333;Laerm;36239;48.132;-1.210;2023-09-19T12:04:39;49.75;40.13;76.62;;
50333;Laerm;36239;48.132;-1.210;2023-09-19T12:07:09;48.13;39.46;70.72;;
50333;Laerm;36239;48.132;-1.210;2023-09-19T12:09:42;45.86;38.87;70.49;;
50333;Laerm;36239;48.132;-1.210;2023-09-19T12:12:25;43.06;39.21;62.50;;
50333;Laerm;36239;48.132;-1.210;2023-09-19T12:14:53;50.18;41.22;75.19;;
50333;Laerm;36239;48.132;-1.210;2023-09-19T12:17:19;54.23;40.71;82.76;;
50333;Laerm;36239;48.132;-1.210;2023-09-19T12:19:50;56.94;40.71;89.66;;
50333;Laerm;36239;48.132;-1.210;2023-09-19T12:22:17;54.81;40.89;80.42;;
50333;Laerm;36239;48.132;-1.210;2023-09-19T12:24:45;53.76;39.70;80.22;;
50333;Laerm;36239;48.132;-1.210;2023-09-19T12:27:11;55.26;41.75;85.06;;
50333;Laerm;36239;48.132;-1.210;2023-09-19T12:29:47;46.96;38.52;75.22;;
50333;Laerm;36239;48.132;-1.210;2023-09-19T12:32:35;58.32;39.70;87.78;;
50333;Laerm;36239;48.132;-1.210;2023-09-19T12:35:02;47.29;41.22;73.78;;
50333;Laerm;36239;48.132;-1.210;2023-09-19T12:37:33;48.98;40.53;74.57;;
50333;Laerm;36239;48.132;-1.210;2023-09-19T12:40:05;59.28;38.74;88.29;;
50333;Laerm;36239;48.132;-1.210;2023-09-19T12:42:47;51.79;39.92;79.00;;
50333;Laerm;36239;48.132;-1.210;2023-09-19T12:45:13;57.44;39.92;90.14;;
50333;Laerm;36239;48.132;-1.210;2023-09-19T12:47:45;45.50;39.58;71.22;;
50333;Laerm;36239;48.132;-1.210;2023-09-19T12:50:27;47.35;39.34;73.39;;
50333;Laerm;36239;48.132;-1.210;2023-09-19T12:52:56;57.28;39.92;86.94;;
50333;Laerm;36239;48.132;-1.210;2023-09-19T12:55:29;55.13;40.03;79.84;;
50333;Laerm;36239;48.132;-1.210;2023-09-19T12:58:14;47.29;40.27;71.77;;
50333;Laerm;36239;48.132;-1.210;2023-09-19T13:00:45;55.59;39.21;81.02;;
50333;Laerm;36239;48.132;-1.210;2023-09-19T13:05:52;50.68;40.23;79.57;;
50333;Laerm;36239;48.132;-1.210;2023-09-19T13:08:20;64.35;40.33;93.38;;
50333;Laerm;36239;48.132;-1.210;2023-09-19T13:14:13;61.10;40.89;89.29;;
50333;Laerm;36239;48.132;-1.210;2023-09-19T13:24:50;50.72;41.30;65.72;;
50333;Laerm;36239;48.132;-1.210;2023-09-19T13:27:17;54.62;40.33;82.90;;
50333;Laerm;36239;48.132;-1.210;2023-09-19T13:29:43;51.75;41.61;71.06;;
50333;Laerm;36239;48.132;-1.210;2023-09-19T13:32:09;51.09;42.16;72.39;;
50333;Laerm;36239;48.132;-1.210;2023-09-19T13:34:37;52.22;41.89;67.05;;
50333;Laerm;36239;48.132;-1.210;2023-09-19T13:37:03;52.67;43.04;67.24;;
50333;Laerm;36239;48.132;-1.210;2023-09-19T13:39:30;52.15;41.46;74.21;;
50333;Laerm;36239;48.132;-1.210;2023-09-19T13:41:56;54.50;42.47;75.31;;
50333;Laerm;36239;48.132;-1.210;2023-09-19T13:44:22;51.74;42.41;72.77;;
50333;Laerm;36239;48.132;-1.210;2023-09-19T13:46:48;55.76;42.22;81.62;;
50333;Laerm;36239;48.132;-1.210;2023-09-19T13:49:14;55.45;42.53;84.51;;
50333;Laerm;36239;48.132;-1.210;2023-09-19T13:51:41;50.59;41.06;77.92;;
50333;Laerm;36239;48.132;-1.210;2023-09-19T13:54:09;49.46;40.03;76.32;;
50333;Laerm;36239;48.132;-1.210;2023-09-19T13:56:37;46.94;39.58;73.27;;
50333;Laerm;36239;48.132;-1.210;2023-09-19T13:59:04;45.82;39.34;66.54;;
50333;Laerm;36239;48.132;-1.210;2023-09-19T14:01:30;44.31;40.03;64.54;;
50333;Laerm;36239;48.132;-1.210;2023-09-19T14:03:56;43.39;39.08;54.38;;
50333;Laerm;36239;48.132;-1.210;2023-09-19T14:06:22;55.64;39.08;78.32;;
50333;Laerm;36239;48.132;-1.210;2023-09-19T14:08:48;47.71;39.70;74.78;;
50333;Laerm;36239;48.132;-1.210;2023-09-19T14:11:15;43.29;39.70;65.89;;
50333;Laerm;36239;48.132;-1.210;2023-09-19T14:13:42;54.58;40.89;84.02;;
50333;Laerm;36239;48.132;-1.210;2023-09-19T14:16:15;44.26;39.21;62.62;;
50333;Laerm;36239;48.132;-1.210;2023-09-19T14:18:41;43.16;38.81;59.23;;
50333;Laerm;36239;48.132;-1.210;2023-09-19T14:21:07;48.57;39.34;65.82;;
50333;Laerm;36239;48.132;-1.210;2023-09-19T14:23:37;50.92;39.92;85.25;;
50333;Laerm;36239;48.132;-1.210;2023-09-19T14:26:04;53.00;39.58;80.39;;
50333;Laerm;36239;48.132;-1.210;2023-09-19T14:28:31;43.71;38.21;64.50;;